AirNav   Everest Fuels
 
 1152 users online  

PN78 600 Grant Street Rooftop Heliport
Pittsburgh, Pennsylvania, USA

GOING TO PITTSBURGH?


FAA INFORMATION EFFECTIVE 05 DECEMBER 2019

Location

FAA Identifier: PN78
Lat/Long: 40-26-31.2480N 079-59-43.1910W
40-26.520800N 079-59.719850W
40.4420133,-79.9953308
(estimated)
Elevation: 1604 ft. / 489 m (estimated)
Variation: 08W (1985)
Time zone: UTC -5 (UTC -4 during Daylight Saving Time)
Zip code: 15219

Heliport Operations

Heliport use: Private use. Permission required prior to landing
Activation date: 10/1969
Control tower: no
ARTCC: CLEVELAND CENTER
FSS: ALTOONA FLIGHT SERVICE STATION
Attendance: IREG
Wind indicator: yes
Segmented circle: no

Heliport Communications

WX AWOS-A at 42PN (0.9 nm NW): PHONE 412-442-2213
WX ASOS at AGC (6 nm SE): PHONE 412-466-8968
WX ASOS at PIT (11 nm W): PHONE 412-472-0145
WX AWOS-3 at FWQ (16 nm SE): 118.475 (724-379-5815)

Nearby radio navigation aids

VOR radial/distance  VOR name  Freq  Var
AGCr021/10.0ALLEGHENY VOR/DME110.0009W
EWCr165/25.0ELLWOOD CITY VOR/DME115.8008W
HLGr074/28.4WHEELING VOR/DME112.2007W

 
NDB name  Hdg/Dist  Freq  Var  ID
CASTLE160/39.827209WUCP ..- -.-. .--.

Heliport Services

Airframe service: NONE
Powerplant service: NONE

Runway Information

Helipad H1

Dimensions: 50 x 50 ft. / 15 x 15 m
LANDING AREA IS A TRIANGULAR AREA APPROX. 180' ON A SIDE.
Surface: concrete, in fair condition
Latitude: 40-26.520800N
Longitude: 079-59.719850W
Elevation: 1604.0 ft.
Traffic pattern: leftleft
Markings: none, in fair condition

Heliport Ownership and Management from official FAA records

Ownership: Privately-owned
Owner: 600 GRANT STREET ASSOCIATES
600 GRANT ST STE 4900
PITTSBURGH, PA 15230
C/O GALBREATH COMPANY
Manager: EDWARD L GAMBONE
15 ALLEGHENY COUNTY AIRPORT
WEST MIFFLIN, PA 15122-2669
Phone 412-466-2500
EXT 310.

Additional Remarks

FOR CD CTC PITTSBURGH APCH AT 412-472-5591

Instrument Procedures

There are no published instrument procedures at PN78.

Some nearby airports with instrument procedures:

KAGC - Allegheny County Airport (6 nm SE)
KPIT - Pittsburgh International Airport (11 nm W)
G05 - Finleyville Airpark (12 nm S)
KFWQ - Rostraver Airport (16 nm SE)
KBTP - Pittsburgh/Butler Regional Airport (20 nm N)
 
Loc | Ops | Rwys | IFR | FBO | Links
Com | Nav | Svcs | Stats | Notes
Area around PN78 (600 Grant Street Rooftop Heliport)
 
Road maps at: MapQuest Bing Google
 
Aerial photo
No photo
 
Sectional chart

 
Airport distance calculator
Flying to 600 Grant Street Rooftop Heliport? Find the distance to fly.

From to PN78

Sunrise and sunset
Times for 07-Dec-2019
 Local
(UTC-5)
 Zulu
(UTC)
Morning civil twilight07:0012:00
Sunrise07:3112:31
Sunset16:5221:52
Evening civil twilight17:2322:23

Current date and time
Zulu (UTC)  08-Dec-2019 02:29:14
Local (UTC-5)  07-Dec-2019 21:29:14
 
METAR
KAGC 
7nm SE 
080153Z 12004KT 10SM CLR M01/M08 A3037 RMK AO2 SLP305 T10061078
KPIT 
13nm W 
080151Z 00000KT 10SM BKN250 M02/M07 A3037 RMK AO2 SLP309 T10171072
KP53 
16nm SE 
080156Z AUTO 19013G24KT 01/M03 A2995 RMK AO1 PK WND 19026/0146 SLP152 T00111028
KBTP 
20nm N 
080156Z AUTO 12004KT 10SM CLR M02/M07 A3038 RMK AO2 SLP311 T10171067 FZRANO
TAF
KAGC 
7nm SE 
071727Z 0718/0818 VRB02KT P6SM SCT250 FM080000 14004KT P6SM SCT250
KPIT 
13nm W 
072056Z 0721/0824 VRB03KT P6SM SKC FM081400 14004KT P6SM SCT020 FM081800 19007KT P6SM BKN025
NOTAMs
Click for the latest NOTAMs
NOTAMs are issued by the DoD/FAA and will open in a separate window not controlled by AirNav.

 

 
 

Would you like to see your business listed on this page?

 If your business provides an interesting product or service to pilots, flight crews, aircraft, or users of the 600 Grant Street Rooftop Heliport, you should consider listing it here.  To start the listing process, click on the button below
 
Add a business
 

Other Pages about 600 Grant Street Rooftop Heliport

Update a link
 
Copyright © AirNav, LLC. All rights reserved. Privacy Policy  Contact